createdAt,value
2018-05-15T00:02:08.742Z,6.70
2018-05-15T00:04:36.198Z,7.30
2018-05-15T00:07:03.675Z,7.70
2018-05-15T00:09:31.933Z,8.43
2018-05-15T00:11:59.519Z,7.40
2018-05-15T00:14:27.789Z,8.13
2018-05-15T00:16:56.042Z,10.57
2018-05-15T00:19:23.613Z,10.13
2018-05-15T00:21:52.578Z,7.63
2018-05-15T00:24:20.050Z,6.50
2018-05-15T00:26:47.535Z,7.30
2018-05-15T00:29:15.763Z,6.47
2018-05-15T00:31:43.295Z,10.10
2018-05-15T00:34:10.803Z,13.67
2018-05-15T00:36:38.286Z,10.90
2018-05-15T00:39:05.750Z,12.00
2018-05-15T00:41:33.212Z,7.77
2018-05-15T00:44:00.700Z,14.27
2018-05-15T00:46:28.184Z,9.83
2018-05-15T00:48:55.642Z,8.97
2018-05-15T00:51:23.103Z,18.30
2018-05-15T00:53:50.657Z,8.83
2018-05-15T00:56:18.150Z,12.90
2018-05-15T00:58:45.602Z,9.03
2018-05-15T01:01:13.067Z,7.10
2018-05-15T01:03:40.519Z,9.27
2018-05-15T01:06:07.992Z,8.97
2018-05-15T01:08:35.450Z,10.20
2018-05-15T01:11:03.011Z,9.30
2018-05-15T01:13:30.515Z,9.03
2018-05-15T01:15:58.078Z,12.50
2018-05-15T01:18:26.359Z,12.33
2018-05-15T01:20:54.595Z,12.37
2018-05-15T01:23:22.059Z,9.73
2018-05-15T01:25:49.540Z,6.77
2018-05-15T01:28:17.023Z,11.47
2018-05-15T01:30:45.250Z,9.30
2018-05-15T01:33:12.881Z,10.83
2018-05-15T01:35:40.439Z,6.40
2018-05-15T01:38:07.954Z,14.10
2018-05-15T01:40:35.507Z,11.43
2018-05-15T01:43:03.067Z,13.33
2018-05-15T01:45:31.288Z,9.33
2018-05-15T01:47:58.820Z,10.60
2018-05-15T01:50:27.075Z,14.83
2018-05-15T01:52:54.550Z,7.60
2018-05-15T01:55:22.813Z,12.60
2018-05-15T01:57:51.119Z,7.80
2018-05-15T02:00:18.648Z,6.97
2018-05-15T02:02:46.919Z,11.07
2018-05-15T02:05:14.421Z,12.00
2018-05-15T02:07:41.880Z,7.27
2018-05-15T02:10:09.335Z,7.20
2018-05-15T02:12:36.794Z,11.60
2018-05-15T02:15:04.256Z,9.33
2018-05-15T02:17:31.758Z,7.30
2018-05-15T02:19:59.311Z,10.33
2018-05-15T02:22:26.783Z,10.53
2018-05-15T02:24:54.326Z,10.17
2018-05-15T02:27:22.602Z,7.20
2018-05-15T02:29:50.215Z,11.47
2018-05-15T02:32:17.737Z,16.93
2018-05-15T02:34:45.242Z,9.60
2018-05-15T02:37:12.986Z,10.80
2018-05-15T02:39:40.459Z,9.77
2018-05-15T02:42:08.010Z,7.33
2018-05-15T02:44:35.511Z,9.50
2018-05-15T02:47:02.979Z,8.53
2018-05-15T02:49:30.444Z,14.00
2018-05-15T02:51:58.666Z,7.70
2018-05-15T02:54:26.214Z,9.40
2018-05-15T02:56:53.671Z,10.90
2018-05-15T02:59:21.167Z,12.00
2018-05-15T03:01:48.728Z,12.20
2018-05-15T03:04:16.284Z,13.00
2018-05-15T03:06:43.739Z,8.37
2018-05-15T03:09:11.315Z,12.60
2018-05-15T03:11:38.847Z,13.90
2018-05-15T03:14:07.022Z,7.10
2018-05-15T03:16:34.492Z,11.23
2018-05-15T03:19:02.109Z,8.53
2018-05-15T03:21:29.570Z,21.10
2018-05-15T03:23:57.035Z,9.90
2018-05-15T03:26:24.491Z,7.53
2018-05-15T03:28:51.970Z,8.67
2018-05-15T03:31:19.431Z,7.77
2018-05-15T03:33:46.915Z,9.13
2018-05-15T03:36:15.140Z,17.90
2018-05-15T03:38:42.594Z,9.60
2018-05-15T03:41:10.050Z,8.50
2018-05-15T03:43:37.513Z,7.60
2018-05-15T03:46:04.991Z,9.60
2018-05-15T03:48:32.565Z,8.80
2018-05-15T03:51:00.031Z,13.03
2018-05-15T03:53:28.251Z,9.00
2018-05-15T03:55:55.735Z,7.90
2018-05-15T03:58:24.018Z,9.03
2018-05-15T04:01:03.614Z,19.40
2018-05-15T04:03:42.883Z,11.43
2018-05-15T04:06:22.296Z,10.30
2018-05-15T04:08:49.750Z,10.83
2018-05-15T04:11:17.212Z,9.90
2018-05-15T04:13:44.696Z,12.70
2018-05-15T04:16:12.255Z,8.50
2018-05-15T04:18:39.814Z,10.27
2018-05-15T04:21:07.380Z,11.00
2018-05-15T04:23:34.844Z,13.83
2018-05-15T04:26:03.067Z,8.90
2018-05-15T04:28:30.565Z,10.73
2018-05-15T04:30:58.124Z,13.43
2018-05-15T04:33:25.579Z,12.23
2018-05-15T04:35:53.143Z,9.00
2018-05-15T04:38:21.371Z,17.43
2018-05-15T04:40:48.840Z,12.53
2018-05-15T04:43:16.289Z,19.57
2018-05-15T04:45:43.779Z,11.50
2018-05-15T04:48:11.405Z,11.30
2018-05-15T04:50:38.923Z,17.43
2018-05-15T04:53:07.178Z,13.13
2018-05-15T04:55:34.635Z,14.33
2018-05-15T04:58:02.191Z,9.83
2018-05-15T05:00:29.658Z,9.47
2018-05-15T05:02:57.123Z,12.27
2018-05-15T05:05:25.402Z,15.83
2018-05-15T05:07:53.632Z,10.50
2018-05-15T05:10:21.111Z,12.00
2018-05-15T05:12:48.570Z,15.60
2018-05-15T05:15:16.110Z,11.80
2018-05-15T05:17:43.583Z,12.53
2018-05-15T05:20:11.145Z,12.13
2018-05-15T05:22:38.620Z,15.83
2018-05-15T05:25:06.878Z,11.27
2018-05-15T05:27:34.448Z,19.37
2018-05-15T05:30:02.716Z,20.07
2018-05-15T05:32:30.295Z,11.37
2018-05-15T05:34:58.519Z,18.80
2018-05-15T05:37:26.006Z,12.77
2018-05-15T05:39:53.460Z,13.10
2018-05-15T05:42:21.019Z,15.03
2018-05-15T05:44:48.529Z,12.93
2018-05-15T05:47:15.983Z,9.67
2018-05-15T05:49:43.498Z,15.13
2018-05-15T05:52:10.985Z,14.00
2018-05-15T05:54:38.459Z,17.37
2018-05-15T05:57:05.962Z,12.50
2018-05-15T05:59:33.517Z,10.27
2018-05-15T06:02:02.538Z,14.93
2018-05-15T06:04:30.791Z,16.47
2018-05-15T06:06:58.355Z,13.77
2018-05-15T06:09:25.819Z,14.30
2018-05-15T06:11:54.045Z,14.50
2018-05-15T06:14:21.584Z,14.30
2018-05-15T06:16:49.095Z,18.00
2018-05-15T06:19:16.573Z,8.60
2018-05-15T06:21:44.798Z,12.93
2018-05-15T06:24:12.263Z,11.43
2018-05-15T06:26:39.742Z,12.83
2018-05-15T06:29:07.291Z,14.73
2018-05-15T06:31:35.521Z,17.93
2018-05-15T06:34:02.982Z,17.93
2018-05-15T06:36:30.441Z,18.60
2018-05-15T06:38:57.902Z,12.70
2018-05-15T06:41:25.367Z,25.13
2018-05-15T06:43:52.837Z,12.37
2018-05-15T06:46:20.319Z,11.53
2018-05-15T06:48:47.871Z,20.17
2018-05-15T06:51:15.429Z,12.50
2018-05-15T06:53:44.427Z,15.17
2018-05-15T06:56:11.898Z,14.00
2018-05-15T06:58:40.127Z,14.40
2018-05-15T07:01:07.587Z,13.90
2018-05-15T07:03:35.074Z,10.73
2018-05-15T07:06:02.557Z,11.40
2018-05-15T07:08:30.782Z,17.00
2018-05-15T07:10:58.322Z,12.07
2018-05-15T07:13:25.798Z,15.30
2018-05-15T07:15:53.280Z,11.37
2018-05-15T07:18:20.906Z,16.23
2018-05-15T07:20:48.517Z,11.27
2018-05-15T07:23:16.738Z,11.13
2018-05-15T07:25:44.293Z,13.00
2018-05-15T07:28:11.763Z,17.00
2018-05-15T07:30:39.233Z,10.77
2018-05-15T07:33:06.786Z,11.70
2018-05-15T07:35:34.290Z,13.90
2018-05-15T07:38:02.613Z,16.83
2018-05-15T07:40:31.010Z,14.50
2018-05-15T07:42:58.706Z,16.70
2018-05-15T07:45:27.076Z,16.20
2018-05-15T07:47:55.434Z,13.23
2018-05-15T07:50:23.022Z,11.13
2018-05-15T07:52:51.264Z,15.10
2018-05-15T07:55:18.975Z,9.20
2018-05-15T07:57:46.590Z,20.73
2018-05-15T08:00:14.098Z,13.63
2018-05-15T08:02:41.702Z,12.73
2018-05-15T08:05:09.172Z,22.50
2018-05-15T08:07:36.635Z,16.07
2018-05-15T08:10:04.891Z,11.60
2018-05-15T08:12:32.405Z,14.97
2018-05-15T08:14:59.870Z,15.13
2018-05-15T08:17:27.323Z,7.30
2018-05-15T08:19:54.820Z,16.03
2018-05-15T08:22:22.287Z,9.43
2018-05-15T08:24:49.893Z,10.33
2018-05-15T08:27:17.505Z,12.43
2018-05-15T08:29:45.184Z,9.70
2018-05-15T08:32:13.426Z,19.70
2018-05-15T08:34:40.960Z,22.17
2018-05-15T08:37:08.450Z,7.80
2018-05-15T08:39:36.687Z,8.50
2018-05-15T08:42:04.278Z,10.03
2018-05-15T08:44:32.869Z,7.50
2018-05-15T08:47:02.203Z,11.33
2018-05-15T08:49:30.484Z,8.00
2018-05-15T08:51:58.065Z,19.20
2018-05-15T08:54:25.741Z,11.13
2018-05-15T08:56:53.503Z,10.40
2018-05-15T08:59:21.040Z,17.50
2018-05-15T09:01:48.614Z,15.60
2018-05-15T09:04:16.210Z,11.47
2018-05-15T09:06:43.854Z,11.97
2018-05-15T09:09:11.421Z,5.20
2018-05-15T09:11:39.004Z,9.90
2018-05-15T09:14:07.229Z,15.10
2018-05-15T09:16:34.810Z,9.30
2018-05-15T09:19:02.255Z,8.70
2018-05-15T09:21:29.719Z,5.50
2018-05-15T09:23:57.346Z,8.37
2018-05-15T09:26:24.838Z,6.90
2018-05-15T09:28:52.420Z,7.50
2018-05-15T09:31:20.650Z,6.53
2018-05-15T09:33:48.145Z,7.20
2018-05-15T09:36:15.612Z,10.27
2018-05-15T09:38:43.150Z,13.83
2018-05-15T09:41:10.623Z,8.43
2018-05-15T09:43:54.751Z,8.13
2018-05-15T09:46:22.299Z,9.03
2018-05-15T09:48:49.763Z,10.20
2018-05-15T09:51:17.214Z,12.00
2018-05-15T09:53:44.694Z,4.40
2018-05-15T09:56:12.162Z,7.00
2018-05-15T09:58:40.413Z,5.17
2018-05-15T10:01:07.866Z,5.63
2018-05-15T10:03:36.846Z,9.37
2018-05-15T10:06:04.328Z,10.30
2018-05-15T10:08:31.984Z,10.60
2018-05-15T10:10:59.442Z,5.67
2018-05-15T10:13:26.909Z,9.57
2018-05-15T10:15:54.515Z,22.83
2018-05-15T10:18:21.987Z,10.77
2018-05-15T10:20:49.439Z,9.07
2018-05-15T10:23:16.906Z,5.17
2018-05-15T10:25:44.366Z,7.93
2018-05-15T10:28:11.838Z,8.87
2018-05-15T10:30:39.298Z,6.40
2018-05-15T10:33:06.850Z,7.40
2018-05-15T10:35:34.307Z,7.27
2018-05-15T10:38:01.776Z,9.20
2018-05-15T10:40:29.346Z,5.40
2018-05-15T10:42:56.812Z,7.43
2018-05-15T10:45:25.061Z,4.40
2018-05-15T10:47:52.637Z,17.43
2018-05-15T10:50:20.894Z,7.47
2018-05-15T10:52:48.510Z,7.50
2018-05-15T10:55:16.042Z,7.10
2018-05-15T10:57:44.286Z,5.70
2018-05-15T11:00:11.797Z,9.70
2018-05-15T11:02:39.392Z,10.97
2018-05-15T11:05:06.978Z,8.40
2018-05-15T11:07:35.231Z,9.53
2018-05-15T11:10:02.805Z,6.70
2018-05-15T11:12:30.474Z,8.60
2018-05-15T11:14:58.137Z,10.07
2018-05-15T11:17:26.067Z,11.43
2018-05-15T11:20:06.557Z,7.33
2018-05-15T11:22:47.443Z,4.73
2018-05-15T11:25:15.806Z,9.70
2018-05-15T11:27:43.283Z,5.37
2018-05-15T11:30:11.533Z,8.93
2018-05-15T11:32:39.082Z,5.83
2018-05-15T11:35:06.547Z,7.37
2018-05-15T11:37:34.788Z,14.70
2018-05-15T11:40:02.275Z,8.20
2018-05-15T11:42:29.830Z,7.63
2018-05-15T11:44:57.330Z,9.47
2018-05-15T11:47:25.615Z,6.47
2018-05-15T11:49:53.831Z,6.17
2018-05-15T11:52:21.305Z,8.07
2018-05-15T11:54:48.099Z,4.83
2018-05-15T11:57:15.574Z,10.73
2018-05-15T11:59:43.083Z,7.93
2018-05-15T12:02:10.511Z,6.63
2018-05-15T12:04:38.072Z,8.63
2018-05-15T12:07:05.627Z,8.30
2018-05-15T12:09:33.089Z,6.70
2018-05-15T12:12:00.556Z,9.20
2018-05-15T12:14:28.020Z,13.73
2018-05-15T12:16:56.242Z,5.00
2018-05-15T12:19:23.700Z,6.07
2018-05-15T12:21:51.163Z,4.80
2018-05-15T12:24:18.626Z,10.63
2018-05-15T12:26:46.083Z,7.57
2018-05-15T12:29:13.554Z,11.10
2018-05-15T12:31:41.017Z,9.73
2018-05-15T12:34:08.571Z,8.00
2018-05-15T12:36:36.056Z,9.67
2018-05-15T12:39:04.299Z,6.83
2018-05-15T12:41:31.939Z,7.77
2018-05-15T12:43:59.294Z,5.87
2018-05-15T12:46:26.767Z,8.80
2018-05-15T12:48:54.258Z,12.93
2018-05-15T12:51:22.516Z,4.70
2018-05-15T12:53:50.064Z,5.77
2018-05-15T12:56:19.043Z,6.80
2018-05-15T12:58:46.506Z,4.23
2018-05-15T13:01:13.960Z,8.43
2018-05-15T13:03:41.439Z,10.67
2018-05-15T13:06:08.999Z,6.30
2018-05-15T13:08:36.450Z,4.13
2018-05-15T13:11:05.423Z,8.20
2018-05-15T13:13:32.993Z,20.97
2018-05-15T13:16:00.562Z,11.20
2018-05-15T13:18:28.105Z,11.20
2018-05-15T13:20:56.274Z,5.10
2018-05-15T13:23:23.738Z,5.87
2018-05-15T13:25:51.195Z,5.00
2018-05-15T13:28:18.659Z,4.87
2018-05-15T13:30:46.214Z,4.47
2018-05-15T13:33:13.680Z,7.00
2018-05-15T13:35:41.137Z,4.63
2018-05-15T13:38:08.602Z,4.83
2018-05-15T13:40:36.828Z,13.13
2018-05-15T13:43:04.299Z,4.57
2018-05-15T13:45:31.759Z,12.60
2018-05-15T13:47:59.297Z,5.00
2018-05-15T13:50:26.885Z,7.00
2018-05-15T13:52:54.319Z,5.07
2018-05-15T13:55:21.788Z,9.13
2018-05-15T13:57:49.250Z,4.13
2018-05-15T14:00:16.780Z,2.83
2018-05-15T14:02:44.287Z,3.63
2018-05-15T14:05:11.825Z,4.10
2018-05-15T14:07:39.298Z,7.10
2018-05-15T14:10:06.758Z,5.63
2018-05-15T14:12:34.270Z,4.83
2018-05-15T14:15:02.475Z,4.93
2018-05-15T14:17:30.036Z,2.73
2018-05-15T14:19:57.494Z,3.90
2018-05-15T14:22:24.946Z,4.77
2018-05-15T14:24:53.931Z,8.40
2018-05-15T14:27:21.391Z,9.13
2018-05-15T14:29:49.282Z,5.23
2018-05-15T14:32:16.826Z,8.77
2018-05-15T14:34:44.281Z,6.30
2018-05-15T14:37:11.740Z,5.40
2018-05-15T14:39:39.202Z,6.83
2018-05-15T14:42:18.628Z,12.50
2018-05-15T14:44:46.200Z,6.83
2018-05-15T14:47:13.851Z,6.40
2018-05-15T14:49:41.366Z,8.13
2018-05-15T14:52:08.925Z,7.77
2018-05-15T14:54:36.423Z,4.30
2018-05-15T14:57:03.877Z,6.03
2018-05-15T14:59:31.438Z,4.70
2018-05-15T15:01:58.919Z,6.70
2018-05-15T15:04:27.176Z,3.93
2018-05-15T15:06:56.166Z,9.30
2018-05-15T15:09:23.722Z,6.43
2018-05-15T15:11:51.992Z,3.67
2018-05-15T15:14:19.455Z,5.30
2018-05-15T15:16:47.726Z,4.20
2018-05-15T15:19:15.286Z,3.67
2018-05-15T15:21:42.748Z,6.73
2018-05-15T15:24:10.303Z,4.50
2018-05-15T15:26:37.768Z,8.43
2018-05-15T15:29:06.047Z,2.83
2018-05-15T15:31:35.032Z,3.47
2018-05-15T15:34:02.587Z,2.53
2018-05-15T15:36:30.055Z,4.03
2018-05-15T15:38:58.316Z,4.33
2018-05-15T15:41:25.799Z,8.23
2018-05-15T15:43:54.027Z,7.20
2018-05-15T15:46:21.520Z,6.53
2018-05-15T15:48:49.072Z,3.53
2018-05-15T15:51:16.537Z,4.90
2018-05-15T15:53:44.861Z,6.87
2018-05-15T15:56:12.331Z,5.27
2018-05-15T15:58:39.791Z,4.50
2018-05-15T16:01:07.255Z,5.60
2018-05-15T16:03:34.722Z,5.03
2018-05-15T16:06:02.186Z,4.93
2018-05-15T16:08:29.659Z,3.03
2018-05-15T16:10:57.198Z,4.57
2018-05-15T16:13:24.668Z,6.83
2018-05-15T16:15:52.890Z,4.53
2018-05-15T16:18:20.366Z,3.67
2018-05-15T16:20:47.843Z,2.83
2018-05-15T16:23:15.302Z,4.73
2018-05-15T16:25:42.767Z,4.37
2018-05-15T16:28:11.041Z,7.60
2018-05-15T16:30:38.491Z,6.10
2018-05-15T16:33:05.961Z,4.20
2018-05-15T16:35:33.411Z,4.80
2018-05-15T16:38:02.399Z,2.60
2018-05-15T16:40:30.733Z,4.03
2018-05-15T16:42:58.247Z,3.80
2018-05-15T16:45:26.474Z,5.10
2018-05-15T16:47:53.946Z,3.70
2018-05-15T16:50:21.435Z,3.83
2018-05-15T16:52:49.691Z,6.00
2018-05-15T16:55:17.254Z,4.47
2018-05-15T16:57:44.751Z,4.07
2018-05-15T17:00:12.972Z,9.77
2018-05-15T17:02:40.454Z,5.67
2018-05-15T17:05:08.673Z,4.73
2018-05-15T17:07:36.179Z,8.43
2018-05-15T17:10:03.735Z,4.90
2018-05-15T17:12:31.289Z,6.07
2018-05-15T17:14:58.747Z,6.57
2018-05-15T17:17:26.209Z,5.70
2018-05-15T17:19:53.659Z,4.63
2018-05-15T17:22:21.171Z,4.23
2018-05-15T17:24:48.628Z,4.17
2018-05-15T17:27:16.235Z,3.57
2018-05-15T17:29:43.699Z,3.30
2018-05-15T17:32:11.959Z,4.23
2018-05-15T17:34:39.414Z,3.73
2018-05-15T17:37:06.985Z,4.10
2018-05-15T17:39:34.546Z,4.93
2018-05-15T17:42:02.135Z,5.00
2018-05-15T17:44:29.621Z,4.20
2018-05-15T17:46:57.127Z,3.13
2018-05-15T17:49:25.390Z,4.03
2018-05-15T17:51:52.956Z,3.83
2018-05-15T17:54:20.424Z,3.73
2018-05-15T17:56:48.719Z,6.10
2018-05-15T17:59:16.193Z,3.90
2018-05-15T18:01:43.757Z,5.03
2018-05-15T18:04:11.226Z,3.43
2018-05-15T18:06:38.716Z,3.93
2018-05-15T18:09:06.182Z,5.60
2018-05-15T18:11:34.447Z,5.70
2018-05-15T18:14:01.911Z,6.17
2018-05-15T18:16:30.155Z,7.97
2018-05-15T18:18:57.642Z,5.77
2018-05-15T18:21:25.213Z,7.80
2018-05-15T18:23:53.525Z,6.30
2018-05-15T18:26:21.036Z,6.70
2018-05-15T18:28:48.507Z,6.87
2018-05-15T18:31:16.754Z,11.23
2018-05-15T18:33:44.245Z,18.40
2018-05-15T18:36:12.496Z,17.73
2018-05-15T18:38:40.062Z,27.57
2018-05-15T18:41:08.307Z,23.13
2018-05-15T18:43:35.793Z,29.40
2018-05-15T18:46:04.068Z,23.80
2018-05-15T18:48:31.542Z,25.57
2018-05-15T18:50:59.840Z,26.97
2018-05-15T18:53:28.051Z,22.30
2018-05-15T18:55:55.532Z,17.20
2018-05-15T18:58:23.088Z,10.90
2018-05-15T19:00:50.650Z,8.70
2018-05-15T19:03:18.210Z,14.43
2018-05-15T19:05:45.679Z,6.97
2018-05-15T19:08:13.914Z,8.70
2018-05-15T19:10:41.397Z,12.83
2018-05-15T19:13:08.851Z,8.93
2018-05-15T19:15:36.409Z,6.40
2018-05-15T19:18:03.863Z,5.83
2018-05-15T19:20:31.416Z,5.03
2018-05-15T19:22:58.915Z,8.57
2018-05-15T19:25:26.481Z,16.77
2018-05-15T19:27:54.671Z,8.20
2018-05-15T19:30:22.224Z,8.00
2018-05-15T19:32:55.469Z,7.20
2018-05-15T19:35:28.811Z,10.10
2018-05-15T19:37:56.376Z,6.67
2018-05-15T19:40:24.398Z,6.83
2018-05-15T19:42:52.665Z,6.33
2018-05-15T19:45:20.124Z,14.40
2018-05-15T19:47:47.596Z,16.80
2018-05-15T19:50:15.915Z,20.83
2018-05-15T19:52:43.379Z,13.40
2018-05-15T19:55:10.894Z,10.53
2018-05-15T19:57:39.147Z,7.97
2018-05-15T20:00:07.422Z,9.53
2018-05-15T20:02:34.939Z,10.17
2018-05-15T20:05:02.450Z,8.63
2018-05-15T20:07:30.691Z,14.67
2018-05-15T20:09:58.243Z,12.20
2018-05-15T20:12:25.702Z,9.07
2018-05-15T20:14:53.279Z,9.90
2018-05-15T20:17:20.747Z,7.63
2018-05-15T20:19:48.216Z,11.63
2018-05-15T20:22:16.459Z,8.57
2018-05-15T20:24:43.934Z,13.23
2018-05-15T20:27:11.491Z,11.37
2018-05-15T20:29:38.954Z,14.53
2018-05-15T20:32:07.193Z,12.67
2018-05-15T20:34:34.667Z,11.20
2018-05-15T20:37:02.242Z,12.73
2018-05-15T20:39:30.477Z,13.90
2018-05-15T20:41:57.951Z,13.57
2018-05-15T20:44:25.551Z,11.57
2018-05-15T20:46:53.685Z,12.03
2018-05-15T20:49:21.170Z,16.40
2018-05-15T20:51:48.728Z,26.17
2018-05-15T20:54:16.194Z,18.73
2018-05-15T20:56:44.436Z,13.40
2018-05-15T20:59:11.915Z,12.20
2018-05-15T21:01:39.379Z,25.20
2018-05-15T21:04:07.631Z,17.27
2018-05-15T21:06:35.098Z,12.60
2018-05-15T21:09:02.585Z,10.40
2018-05-15T21:11:30.080Z,19.20
2018-05-15T21:13:57.541Z,15.80
2018-05-15T21:16:25.031Z,21.70
2018-05-15T21:18:53.355Z,12.33
2018-05-15T21:21:20.870Z,20.43
2018-05-15T21:23:49.142Z,13.30
2018-05-15T21:26:17.465Z,14.50
2018-05-15T21:28:44.975Z,14.90
2018-05-15T21:31:13.202Z,14.30
2018-05-15T21:33:40.675Z,16.17
2018-05-15T21:36:08.138Z,17.03
2018-05-15T21:38:35.696Z,15.00
2018-05-15T21:41:03.226Z,18.87
2018-05-15T21:43:30.743Z,13.70
2018-05-15T21:45:59.060Z,10.93
2018-05-15T21:48:26.583Z,12.20
2018-05-15T21:50:54.138Z,13.10
2018-05-15T21:53:22.416Z,14.40
2018-05-15T21:55:50.662Z,12.00
2018-05-15T21:58:18.146Z,12.40
2018-05-15T22:00:46.390Z,15.43
2018-05-15T22:03:13.878Z,15.70
2018-05-15T22:05:42.925Z,17.23
2018-05-15T22:08:10.403Z,23.67
2018-05-15T22:10:37.875Z,12.97
2018-05-15T22:13:17.367Z,12.30
2018-05-15T22:15:56.831Z,12.67
2018-05-15T22:18:36.280Z,14.03
2018-05-15T22:21:15.663Z,14.97
2018-05-15T22:23:42.725Z,12.77
2018-05-15T22:26:10.198Z,16.47
2018-05-15T22:28:37.859Z,14.80
2018-05-15T22:31:05.254Z,13.93
2018-05-15T22:33:33.508Z,17.40
2018-05-15T22:36:00.979Z,17.63
2018-05-15T22:38:29.239Z,17.37
2018-05-15T22:40:56.715Z,15.37
2018-05-15T22:43:25.008Z,15.80
2018-05-15T22:45:52.487Z,14.63
2018-05-15T22:48:19.956Z,16.87
2018-05-15T22:50:47.488Z,15.00
2018-05-15T22:53:14.914Z,12.90
2018-05-15T22:55:43.179Z,15.27
2018-05-15T22:58:10.663Z,15.03
2018-05-15T23:00:38.912Z,13.63
2018-05-15T23:03:06.386Z,24.67
2018-05-15T23:05:34.627Z,13.47
2018-05-15T23:08:02.206Z,15.07
2018-05-15T23:10:29.709Z,21.67
2018-05-15T23:12:57.185Z,18.03
2018-05-15T23:15:24.655Z,17.43
2018-05-15T23:17:52.134Z,24.53
2018-05-15T23:20:19.611Z,16.23
2018-05-15T23:22:47.853Z,18.17
2018-05-15T23:25:15.330Z,21.70
2018-05-15T23:27:43.596Z,13.30
2018-05-15T23:30:11.075Z,14.03
2018-05-15T23:32:39.331Z,17.70
2018-05-15T23:35:06.807Z,14.43
2018-05-15T23:37:35.053Z,20.63
2018-05-15T23:40:02.631Z,15.67
2018-05-15T23:42:30.871Z,20.63
2018-05-15T23:44:58.456Z,18.63
2018-05-15T23:47:25.931Z,17.00
2018-05-15T23:49:54.213Z,18.73
2018-05-15T23:52:21.688Z,17.50
2018-05-15T23:54:49.211Z,16.43
2018-05-15T23:57:17.449Z,18.20
2018-05-15T23:59:44.934Z,16.37
